Time;durP1;ratioP1;P1;durP2;ratioP2;P2;SDS_P1;SDS_P2;PMS_P1;PMS_P2;Temp;Humidity;BMP_temperature;BMP_pressure;BME280_temperature;BME280_humidity;BME280_pressure;Samples;Min_cycle;Max_cycle;Signal;HPM_P1;HPM_P2
2022/10/19 00:00:01;;;;;;;19.45;16.13;;;;;;;;;;6117076;23;20009;-74
2022/10/19 00:02:27;;;;;;;19.77;15.20;;;;;;;;;;6119346;23;20005;-74
2022/10/19 00:04:54;;;;;;;17.20;14.55;;;;;;;;;;6119466;23;20005;-74
2022/10/19 00:07:20;;;;;;;15.45;13.80;;;;;;;;;;6119560;23;20005;-74
2022/10/19 00:09:46;;;;;;;16.85;13.82;;;;;;;;;;6117170;23;19998;-74
2022/10/19 00:12:12;;;;;;;15.65;13.98;;;;;;;;;;6117258;23;20635;-74
2022/10/19 00:14:38;;;;;;;15.77;13.90;;;;;;;;;;6119300;23;20002;-74
2022/10/19 00:17:05;;;;;;;15.93;13.32;;;;;;;;;;6118875;23;20077;-74
2022/10/19 00:19:31;;;;;;;16.75;14.07;;;;;;;;;;6117785;23;20005;-73
2022/10/19 00:21:57;;;;;;;14.55;12.85;;;;;;;;;;6119778;23;20021;-74
2022/10/19 00:24:23;;;;;;;15.15;13.20;;;;;;;;;;6119666;23;19998;-73
2022/10/19 00:26:49;;;;;;;16.17;14.15;;;;;;;;;;6119109;23;20056;-74
2022/10/19 00:29:16;;;;;;;16.60;13.52;;;;;;;;;;6119889;23;19998;-74
2022/10/19 00:31:42;;;;;;;15.25;13.15;;;;;;;;;;6091061;23;20018;-74
2022/10/19 00:34:09;;;;;;;15.45;13.23;;;;;;;;;;6119394;23;20006;-73
2022/10/19 00:36:39;;;;;;;17.05;12.55;;;;;;;;;;6119007;23;20077;-74
2022/10/19 00:39:06;;;;;;;14.32;11.88;;;;;;;;;;6120275;23;20002;-74
2022/10/19 00:41:33;;;;;;;12.10;10.82;;;;;;;;;;6117903;23;20017;-74
2022/10/19 00:43:59;;;;;;;13.02;11.38;;;;;;;;;;6120603;23;20009;-74
2022/10/19 00:46:26;;;;;;;14.30;11.65;;;;;;;;;;6118564;23;20013;-74
2022/10/19 00:48:54;;;;;;;15.32;11.63;;;;;;;;;;6119532;23;20017;-74
2022/10/19 00:51:23;;;;;;;14.40;10.65;;;;;;;;;;6119799;23;20459;-74
2022/10/19 00:53:49;;;;;;;17.08;11.38;;;;;;;;;;6094386;23;20001;-74
2022/10/19 00:56:16;;;;;;;11.95;10.40;;;;;;;;;;6116846;23;20009;-74
2022/10/19 00:58:43;;;;;;;15.05;10.25;;;;;;;;;;6118755;23;20009;-74
2022/10/19 01:01:10;;;;;;;11.00;9.80;;;;;;;;;;6119111;23;20012;-74
2022/10/19 01:03:37;;;;;;;12.00;10.07;;;;;;;;;;6118871;23;20010;-74
2022/10/19 01:06:04;;;;;;;11.18;9.95;;;;;;;;;;6119116;23;20053;-73
2022/10/19 01:08:30;;;;;;;12.10;10.25;;;;;;;;;;6117224;23;20005;-74
2022/10/19 01:11:10;;;;;;;11.52;9.50;;;;;;;;;;6093057;23;20462;-74
2022/10/19 01:13:36;;;;;;;17.17;10.18;;;;;;;;;;6119137;23;20006;-75
2022/10/19 01:16:02;;;;;;;13.65;10.57;;;;;;;;;;6118849;23;20005;-74
2022/10/19 01:18:28;;;;;;;11.88;9.43;;;;;;;;;;6119719;23;20006;-74
2022/10/19 01:21:13;;;;;;;13.73;10.75;;;;;;;;;;6116850;23;20001;-74
2022/10/19 01:23:39;;;;;;;17.08;9.45;;;;;;;;;;6118934;23;20504;-74
2022/10/19 01:26:08;;;;;;;11.30;9.63;;;;;;;;;;6118995;23;20002;-74
2022/10/19 01:28:43;;;;;;;12.02;9.05;;;;;;;;;;6119499;23;20391;-73
2022/10/19 01:31:35;;;;;;;12.45;9.40;;;;;;;;;;6117140;23;20566;-74
2022/10/19 01:34:05;;;;;;;10.23;9.05;;;;;;;;;;6119342;23;20005;-74
2022/10/19 01:36:38;;;;;;;13.50;9.70;;;;;;;;;;6119000;23;20010;-73
2022/10/19 01:39:20;;;;;;;13.27;9.82;;;;;;;;;;6118901;23;20013;-73
2022/10/19 01:41:49;;;;;;;13.68;10.48;;;;;;;;;;6116544;23;20002;-74
2022/10/19 01:44:18;;;;;;;12.95;9.38;;;;;;;;;;6118656;23;20006;-74
2022/10/19 01:46:46;;;;;;;12.73;9.90;;;;;;;;;;6118604;23;20006;-74
2022/10/19 01:49:15;;;;;;;13.65;10.02;;;;;;;;;;6119685;23;20009;-74
2022/10/19 01:51:45;;;;;;;12.43;9.90;;;;;;;;;;6116801;23;20018;-75
2022/10/19 01:54:13;;;;;;;12.13;10.15;;;;;;;;;;6116821;23;20415;-74
2022/10/19 01:56:41;;;;;;;11.77;9.85;;;;;;;;;;6116043;23;20006;-74
2022/10/19 01:59:08;;;;;;;10.63;9.52;;;;;;;;;;6118774;23;20020;-74
2022/10/19 02:01:36;;;;;;;13.25;9.48;;;;;;;;;;6118302;23;20009;-74
2022/10/19 02:04:03;;;;;;;15.35;10.30;;;;;;;;;;6119192;23;20006;-74
2022/10/19 02:06:29;;;;;;;12.77;10.65;;;;;;;;;;6118750;23;20029;-74
2022/10/19 02:08:55;;;;;;;11.93;9.80;;;;;;;;;;6118132;23;20040;-73
2022/10/19 02:11:22;;;;;;;12.70;10.50;;;;;;;;;;6119988;23;20052;-74
2022/10/19 02:13:50;;;;;;;16.77;11.35;;;;;;;;;;6120378;23;20001;-74
2022/10/19 02:16:23;;;;;;;14.43;12.25;;;;;;;;;;6120561;23;20005;-74
2022/10/19 02:18:50;;;;;;;15.98;11.85;;;;;;;;;;6120681;23;20005;-74
2022/10/19 02:21:17;;;;;;;15.82;12.43;;;;;;;;;;6119072;23;20002;-74
2022/10/19 02:23:44;;;;;;;13.32;11.23;;;;;;;;;;6121099;23;20008;-74
2022/10/19 02:26:10;;;;;;;18.23;13.10;;;;;;;;;;6120121;23;20002;-74
2022/10/19 02:28:36;;;;;;;13.95;11.95;;;;;;;;;;6120909;23;20005;-74
2022/10/19 02:31:03;;;;;;;14.45;12.57;;;;;;;;;;6120190;23;20018;-74
2022/10/19 02:33:30;;;;;;;17.05;11.65;;;;;;;;;;6120340;23;20057;-74
2022/10/19 02:35:56;;;;;;;12.82;9.93;;;;;;;;;;6118715;23;20443;-74
2022/10/19 02:38:23;;;;;;;13.63;11.07;;;;;;;;;;6120085;23;20081;-74
2022/10/19 02:41:10;;;;;;;13.98;10.60;;;;;;;;;;6115055;23;20056;-75
2022/10/19 02:43:37;;;;;;;12.30;10.23;;;;;;;;;;6041359;23;20005;-74
2022/10/19 02:46:24;;;;;;;12.60;10.60;;;;;;;;;;6112792;23;20481;-75
2022/10/19 02:48:50;;;;;;;13.63;10.18;;;;;;;;;;6114653;23;20006;-74
2022/10/19 02:51:29;;;;;;;12.18;10.57;;;;;;;;;;6114637;23;20013;-74
2022/10/19 02:53:56;;;;;;;15.52;10.85;;;;;;;;;;6088465;23;20006;-73
2022/10/19 02:56:22;;;;;;;14.27;10.50;;;;;;;;;;6114762;23;20006;-75
2022/10/19 02:58:48;;;;;;;11.70;10.10;;;;;;;;;;6112223;23;20037;-74
2022/10/19 03:01:14;;;;;;;13.73;10.65;;;;;;;;;;6114297;23;20129;-74
2022/10/19 03:03:40;;;;;;;16.52;10.60;;;;;;;;;;6113780;23;20014;-73
2022/10/19 03:06:07;;;;;;;12.88;10.25;;;;;;;;;;6114083;23;20068;-73
2022/10/19 03:08:33;;;;;;;13.70;10.50;;;;;;;;;;6088555;23;20010;-74
2022/10/19 03:10:59;;;;;;;15.02;10.38;;;;;;;;;;6113914;23;20108;-74
2022/10/19 03:13:25;;;;;;;12.90;10.38;;;;;;;;;;6112357;23;20005;-74
2022/10/19 03:15:51;;;;;;;11.40;9.90;;;;;;;;;;6113878;23;20008;-74
2022/10/19 03:18:17;;;;;;;20.00;10.60;;;;;;;;;;6111024;23;20010;-74
2022/10/19 03:20:44;;;;;;;14.70;10.65;;;;;;;;;;6110726;23;20010;-74
2022/10/19 03:23:10;;;;;;;13.25;10.52;;;;;;;;;;6107818;23;20006;-74
2022/10/19 03:25:36;;;;;;;19.20;10.77;;;;;;;;;;6111729;23;20431;-74
2022/10/19 03:28:02;;;;;;;11.52;10.05;;;;;;;;;;6110447;23;20029;-74
2022/10/19 03:30:28;;;;;;;13.98;10.65;;;;;;;;;;6109282;23;20058;-74
2022/10/19 03:32:54;;;;;;;14.45;10.00;;;;;;;;;;6111023;23;20331;-74
2022/10/19 03:35:20;;;;;;;11.65;9.82;;;;;;;;;;6111268;23;20006;-75
2022/10/19 03:37:47;;;;;;;12.98;10.43;;;;;;;;;;6111176;23;20048;-74
2022/10/19 03:40:13;;;;;;;16.83;10.93;;;;;;;;;;6111188;23;20017;-73
2022/10/19 03:42:39;;;;;;;10.95;9.50;;;;;;;;;;6106877;23;20044;-74
2022/10/19 03:45:05;;;;;;;13.18;9.98;;;;;;;;;;6111174;23;20006;-73
2022/10/19 03:47:31;;;;;;;14.93;10.30;;;;;;;;;;6110156;23;20016;-73
2022/10/19 03:49:58;;;;;;;12.38;9.68;;;;;;;;;;6085364;23;20013;-74
2022/10/19 03:52:24;;;;;;;13.30;10.02;;;;;;;;;;6108699;23;20010;-74
2022/10/19 03:54:50;;;;;;;13.65;10.38;;;;;;;;;;6111095;23;20304;-74
2022/10/19 03:57:16;;;;;;;14.50;10.38;;;;;;;;;;6110173;23;20052;-74
2022/10/19 03:59:42;;;;;;;12.55;10.20;;;;;;;;;;6111172;23;20005;-74
2022/10/19 04:02:08;;;;;;;12.18;10.02;;;;;;;;;;6110090;23;20006;-74
2022/10/19 04:04:35;;;;;;;14.00;10.20;;;;;;;;;;6108907;23;20002;-74
2022/10/19 04:07:01;;;;;;;15.75;9.95;;;;;;;;;;6110575;23;20014;-75
2022/10/19 04:09:27;;;;;;;12.88;10.25;;;;;;;;;;6110451;23;20072;-75
2022/10/19 04:11:53;;;;;;;11.45;10.10;;;;;;;;;;6084460;23;20121;-74
2022/10/19 04:14:21;;;;;;;13.45;10.05;;;;;;;;;;6110386;23;19994;-73
2022/10/19 04:16:47;;;;;;;14.60;10.20;;;;;;;;;;6108544;23;20016;-73
2022/10/19 04:19:14;;;;;;;14.35;10.82;;;;;;;;;;6110445;23;20016;-73
2022/10/19 04:21:42;;;;;;;12.38;10.32;;;;;;;;;;6109942;23;20016;-74
2022/10/19 04:24:09;;;;;;;12.52;10.23;;;;;;;;;;6108878;23;20025;-74
2022/10/19 04:26:38;;;;;;;12.07;10.00;;;;;;;;;;6110044;23;20076;-73
2022/10/19 04:29:04;;;;;;;12.32;10.38;;;;;;;;;;6110976;23;20040;-74
2022/10/19 04:31:30;;;;;;;13.32;9.90;;;;;;;;;;6110540;23;20010;-73
2022/10/19 04:33:56;;;;;;;15.77;10.68;;;;;;;;;;6110717;23;20323;-74
2022/10/19 04:36:22;;;;;;;12.50;9.75;;;;;;;;;;6109880;23;20017;-73
2022/10/19 04:38:48;;;;;;;10.93;9.30;;;;;;;;;;6108737;23;20006;-74
2022/10/19 04:41:16;;;;;;;14.43;9.85;;;;;;;;;;6107879;23;20009;-75
2022/10/19 04:43:44;;;;;;;13.52;10.38;;;;;;;;;;6109964;23;20415;-74
2022/10/19 04:46:12;;;;;;;12.32;10.88;;;;;;;;;;6110542;23;20042;-74
2022/10/19 04:48:39;;;;;;;10.88;9.48;;;;;;;;;;6084215;23;20064;-74
2022/10/19 04:51:06;;;;;;;10.40;9.30;;;;;;;;;;6108491;23;20022;-74
2022/10/19 04:53:33;;;;;;;12.77;10.05;;;;;;;;;;6110466;23;20053;-73
2022/10/19 04:55:59;;;;;;;13.02;9.88;;;;;;;;;;6110936;23;20010;-74
2022/10/19 04:58:26;;;;;;;13.13;9.75;;;;;;;;;;6109314;23;20014;-73
2022/10/19 05:00:53;;;;;;;12.15;10.27;;;;;;;;;;6109645;23;20165;-73
2022/10/19 05:03:19;;;;;;;12.90;9.90;;;;;;;;;;6109970;23;20013;-74
2022/10/19 05:05:45;;;;;;;13.90;10.77;;;;;;;;;;6108698;23;20067;-74
2022/10/19 05:08:11;;;;;;;12.68;10.07;;;;;;;;;;6110301;23;20036;-74
2022/10/19 05:10:37;;;;;;;13.00;10.88;;;;;;;;;;6109753;23;20064;-74
2022/10/19 05:13:04;;;;;;;15.02;10.85;;;;;;;;;;6108358;23;20009;-74
2022/10/19 05:15:30;;;;;;;12.15;10.10;;;;;;;;;;6113165;23;20006;-74
2022/10/19 05:17:57;;;;;;;15.77;10.70;;;;;;;;;;6113253;23;19998;-74
2022/10/19 05:20:23;;;;;;;12.90;10.73;;;;;;;;;;6112934;23;20010;-74
2022/10/19 05:22:50;;;;;;;12.25;9.88;;;;;;;;;;6084616;23;20002;-74
2022/10/19 05:25:16;;;;;;;12.77;10.27;;;;;;;;;;6112855;23;20012;-74
2022/10/19 05:27:42;;;;;;;13.38;10.60;;;;;;;;;;6112764;23;19998;-74
2022/10/19 05:30:08;;;;;;;12.43;10.25;;;;;;;;;;6112572;23;20005;-74
2022/10/19 05:32:34;;;;;;;13.65;10.13;;;;;;;;;;6110531;23;20010;-73
2022/10/19 05:35:01;;;;;;;15.75;10.32;;;;;;;;;;6112987;23;20002;-75
2022/10/19 05:37:27;;;;;;;16.77;11.20;;;;;;;;;;6113223;23;20006;-75
2022/10/19 05:39:56;;;;;;;16.17;10.98;;;;;;;;;;6086284;23;20002;-75
2022/10/19 05:42:22;;;;;;;13.43;11.15;;;;;;;;;;6113018;23;20010;-74
2022/10/19 05:44:49;;;;;;;12.75;11.20;;;;;;;;;;6089421;23;20065;-74
2022/10/19 05:47:15;;;;;;;15.30;11.68;;;;;;;;;;6086407;23;20006;-75
2022/10/19 05:49:41;;;;;;;18.83;12.70;;;;;;;;;;6115156;23;19998;-75
2022/10/19 05:52:07;;;;;;;15.13;12.10;;;;;;;;;;6088560;23;20798;-75
2022/10/19 05:54:34;;;;;;;14.57;11.23;;;;;;;;;;6114077;23;19998;-75
2022/10/19 05:57:01;;;;;;;15.00;12.75;;;;;;;;;;6114408;23;20017;-74
2022/10/19 05:59:27;;;;;;;16.67;12.18;;;;;;;;;;6114029;23;20009;-76
2022/10/19 06:01:54;;;;;;;15.10;12.38;;;;;;;;;;6113090;23;20073;-77
2022/10/19 06:04:20;;;;;;;14.82;12.60;;;;;;;;;;6114002;23;20065;-74
2022/10/19 06:06:46;;;;;;;14.43;11.80;;;;;;;;;;6110134;23;20006;-75
2022/10/19 06:09:12;;;;;;;15.95;12.65;;;;;;;;;;6112959;23;20002;-75
2022/10/19 06:11:40;;;;;;;14.05;11.93;;;;;;;;;;6088064;23;20018;-76
2022/10/19 06:14:08;;;;;;;19.02;13.13;;;;;;;;;;6113672;23;19998;-74
2022/10/19 06:16:34;;;;;;;21.00;12.93;;;;;;;;;;6110966;23;20215;-76
2022/10/19 06:19:00;;;;;;;23.92;14.95;;;;;;;;;;6112187;23;20009;-76
2022/10/19 06:21:28;;;;;;;18.52;13.68;;;;;;;;;;6086645;23;20352;-82
2022/10/19 06:23:56;;;;;;;17.48;13.95;;;;;;;;;;6112774;23;19998;-76
2022/10/19 06:26:23;;;;;;;360.73;64.97;;;;;;;;;;6112649;23;20006;-75
2022/10/19 06:28:49;;;;;;;68.20;18.65;;;;;;;;;;6112106;23;20200;-75
2022/10/19 06:31:16;;;;;;;64.63;20.83;;;;;;;;;;6110879;23;20018;-76
2022/10/19 06:33:43;;;;;;;79.38;20.75;;;;;;;;;;6113289;23;20002;-77
2022/10/19 06:36:11;;;;;;;82.65;21.38;;;;;;;;;;6112694;23;20242;-76
2022/10/19 06:38:38;;;;;;;52.97;16.80;;;;;;;;;;6111681;23;20371;-77
2022/10/19 06:41:04;;;;;;;35.13;14.23;;;;;;;;;;6087916;23;20017;-78
2022/10/19 06:43:30;;;;;;;27.00;13.10;;;;;;;;;;6113146;23;19998;-78
2022/10/19 06:45:56;;;;;;;42.50;14.55;;;;;;;;;;6113472;23;20006;-77
2022/10/19 06:48:23;;;;;;;59.08;16.35;;;;;;;;;;6112928;23;20021;-76
2022/10/19 06:50:59;;;;;;;28.85;14.02;;;;;;;;;;6111758;23;20048;-77
2022/10/19 06:53:25;;;;;;;29.42;13.18;;;;;;;;;;6113848;23;20015;-74
2022/10/19 06:55:52;;;;;;;25.08;12.77;;;;;;;;;;6112996;23;20002;-76
2022/10/19 06:58:18;;;;;;;36.47;14.20;;;;;;;;;;6112917;23;20033;-75
2022/10/19 07:00:44;;;;;;;17.35;11.75;;;;;;;;;;6112004;23;20028;-77
2022/10/19 07:03:11;;;;;;;20.10;12.43;;;;;;;;;;6112173;23;20088;-77
2022/10/19 07:05:37;;;;;;;18.50;13.40;;;;;;;;;;6087157;23;20537;-74
2022/10/19 07:08:03;;;;;;;21.13;12.27;;;;;;;;;;6088300;23;20443;-75
2022/10/19 07:10:29;;;;;;;312.98;35.60;;;;;;;;;;6112495;23;20323;-76
2022/10/19 07:12:56;;;;;;;78.68;20.27;;;;;;;;;;6110615;23;20479;-76
2022/10/19 07:15:22;;;;;;;32.10;15.02;;;;;;;;;;6108893;23;20068;-74
2022/10/19 07:17:48;;;;;;;26.15;16.73;;;;;;;;;;6112869;23;20088;-76
2022/10/19 07:20:14;;;;;;;25.55;16.90;;;;;;;;;;6112708;23;20701;-74
2022/10/19 07:22:40;;;;;;;21.58;13.98;;;;;;;;;;6087920;23;20378;-74
2022/10/19 07:25:07;;;;;;;20.30;14.63;;;;;;;;;;6112758;23;20002;-74
2022/10/19 07:27:35;;;;;;;24.23;15.27;;;;;;;;;;6111179;23;20327;-75
2022/10/19 07:30:01;;;;;;;21.77;14.15;;;;;;;;;;6113208;23;20006;-76
2022/10/19 07:32:28;;;;;;;16.05;13.35;;;;;;;;;;6112583;23;20073;-75
2022/10/19 07:34:54;;;;;;;20.45;14.88;;;;;;;;;;6112563;23;20002;-75
2022/10/19 07:37:21;;;;;;;19.83;14.40;;;;;;;;;;6111704;23;20093;-76
2022/10/19 07:39:47;;;;;;;20.55;14.80;;;;;;;;;;6110493;23;20030;-76
2022/10/19 07:42:13;;;;;;;20.20;13.98;;;;;;;;;;6086716;23;20068;-77
2022/10/19 07:44:39;;;;;;;16.52;12.43;;;;;;;;;;6112382;23;20077;-77
2022/10/19 07:47:05;;;;;;;27.15;14.00;;;;;;;;;;6112193;23;20010;-76
2022/10/19 07:49:31;;;;;;;13.18;11.48;;;;;;;;;;6111235;23;20375;-76
2022/10/19 07:51:58;;;;;;;15.77;12.00;;;;;;;;;;6113173;23;20010;-79
2022/10/19 07:54:26;;;;;;;13.43;10.70;;;;;;;;;;6113018;23;20012;-78
2022/10/19 07:56:52;;;;;;;12.40;10.48;;;;;;;;;;6113210;23;20037;-76
2022/10/19 07:59:18;;;;;;;10.07;8.52;;;;;;;;;;6113035;23;20089;-77
2022/10/19 08:01:46;;;;;;;12.98;9.85;;;;;;;;;;6086268;23;20010;-76
2022/10/19 08:04:12;;;;;;;12.25;9.18;;;;;;;;;;6112370;23;20438;-77
2022/10/19 08:06:40;;;;;;;10.82;9.25;;;;;;;;;;6112623;23;20010;-78
2022/10/19 08:09:06;;;;;;;11.35;8.10;;;;;;;;;;6087137;23;20010;-77
2022/10/19 08:11:33;;;;;;;9.48;8.27;;;;;;;;;;6111939;23;20461;-76
2022/10/19 08:14:01;;;;;;;10.00;8.50;;;;;;;;;;6112646;23;19998;-77
2022/10/19 08:16:36;;;;;;;8.77;7.70;;;;;;;;;;6110211;23;20339;-77
2022/10/19 08:19:08;;;;;;;10.45;8.52;;;;;;;;;;6112423;23;19994;-78
2022/10/19 08:21:35;;;;;;;10.98;7.93;;;;;;;;;;6111969;23;20463;-76
2022/10/19 08:24:02;;;;;;;9.50;8.50;;;;;;;;;;6110906;23;20519;-76
2022/10/19 08:26:29;;;;;;;12.02;8.52;;;;;;;;;;6113281;23;20780;-76
2022/10/19 08:29:01;;;;;;;13.82;8.95;;;;;;;;;;6112605;23;19998;-76
2022/10/19 08:31:28;;;;;;;14.60;10.23;;;;;;;;;;6086098;23;20029;-77
2022/10/19 08:33:54;;;;;;;11.70;9.55;;;;;;;;;;6112804;23;20107;-76
2022/10/19 08:36:20;;;;;;;12.07;9.95;;;;;;;;;;6084653;23;20017;-75
2022/10/19 08:38:47;;;;;;;14.13;9.10;;;;;;;;;;6111975;23;20509;-76
2022/10/19 08:41:21;;;;;;;15.43;9.88;;;;;;;;;;6112327;23;20382;-76
2022/10/19 08:43:53;;;;;;;17.33;11.73;;;;;;;;;;6111998;23;20009;-77
2022/10/19 08:46:39;;;;;;;9.43;8.00;;;;;;;;;;6112250;23;20010;-77
2022/10/19 08:49:07;;;;;;;11.82;8.50;;;;;;;;;;6109956;23;19998;-75
2022/10/19 08:51:39;;;;;;;9.57;8.32;;;;;;;;;;6111609;23;20017;-79
2022/10/19 08:54:11;;;;;;;10.15;8.40;;;;;;;;;;6086031;23;20440;-77
2022/10/19 08:56:44;;;;;;;11.10;8.50;;;;;;;;;;6112449;23;20013;-77
2022/10/19 08:59:36;;;;;;;11.57;8.82;;;;;;;;;;6084467;23;21018;-75
2022/10/19 09:02:16;;;;;;;9.93;8.50;;;;;;;;;;6075790;23;20335;-79
2022/10/19 09:04:46;;;;;;;9.60;8.02;;;;;;;;;;6112464;23;19998;-75
2022/10/19 09:07:36;;;;;;;9.10;8.15;;;;;;;;;;6111967;23;20100;-76
2022/10/19 09:10:17;;;;;;;12.10;7.97;;;;;;;;;;6110907;23;20450;-74
2022/10/19 09:13:03;;;;;;;11.82;8.70;;;;;;;;;;6111774;23;20014;-78
2022/10/19 09:15:42;;;;;;;14.10;8.70;;;;;;;;;;6085927;23;20002;-77
2022/10/19 09:18:10;;;;;;;8.65;7.75;;;;;;;;;;6085800;23;20064;-78
2022/10/19 09:20:41;;;;;;;14.98;8.75;;;;;;;;;;6086510;23;20010;-83
2022/10/19 09:23:17;;;;;;;10.68;8.27;;;;;;;;;;6083604;23;20060;-77
2022/10/19 09:25:45;;;;;;;9.80;8.63;;;;;;;;;;6086348;23;20010;-73
2022/10/19 09:28:40;;;;;;;10.85;8.63;;;;;;;;;;6112373;23;20006;-78
2022/10/19 09:34:22;;;;;;;12.00;9.07;;;;;;;;;;6071393;23;20503;-78
2022/10/19 09:36:52;;;;;;;12.75;10.02;;;;;;;;;;6110826;23;20040;-79
2022/10/19 09:39:18;;;;;;;11.35;9.02;;;;;;;;;;6112594;23;20199;-78
2022/10/19 09:41:53;;;;;;;9.20;8.10;;;;;;;;;;6086089;23;20013;-78
2022/10/19 09:44:19;;;;;;;10.27;8.68;;;;;;;;;;6113050;23;20431;-76
2022/10/19 09:46:55;;;;;;;9.18;8.25;;;;;;;;;;6110658;23;20100;-76
2022/10/19 09:49:40;;;;;;;11.73;9.50;;;;;;;;;;6111768;23;20423;-75
2022/10/19 09:52:24;;;;;;;12.32;9.15;;;;;;;;;;6111525;23;20359;-76
2022/10/19 09:55:01;;;;;;;12.40;8.27;;;;;;;;;;6086307;23;20032;-78
2022/10/19 09:57:27;;;;;;;14.65;8.95;;;;;;;;;;6090850;23;20468;-76
2022/10/19 09:59:54;;;;;;;8.90;7.90;;;;;;;;;;6110607;23;20002;-79
2022/10/19 10:02:22;;;;;;;9.43;8.43;;;;;;;;;;6109963;23;20002;-76
2022/10/19 10:04:56;;;;;;;12.10;8.85;;;;;;;;;;6111882;23;20398;-78
2022/10/19 10:07:25;;;;;;;10.13;7.68;;;;;;;;;;6110432;23;20009;-77
2022/10/19 10:09:52;;;;;;;9.48;8.45;;;;;;;;;;6111704;23;20006;-77
2022/10/19 10:12:18;;;;;;;10.57;9.13;;;;;;;;;;6112151;23;20072;-78
2022/10/19 10:14:45;;;;;;;11.30;8.90;;;;;;;;;;6112555;23;20009;-75
2022/10/19 10:17:14;;;;;;;10.00;8.07;;;;;;;;;;6110026;23;20376;-77
2022/10/19 10:19:49;;;;;;;10.13;8.73;;;;;;;;;;6112071;23;20462;-76
2022/10/19 10:22:26;;;;;;;11.80;8.77;;;;;;;;;;6112965;23;20006;-76
2022/10/19 10:24:53;;;;;;;12.23;8.65;;;;;;;;;;6111632;23;20024;-78
2022/10/19 10:27:33;;;;;;;8.55;7.65;;;;;;;;;;6110778;23;20089;-77
2022/10/19 10:30:04;;;;;;;8.63;7.55;;;;;;;;;;6113119;23;20002;-77
2022/10/19 10:32:31;;;;;;;8.43;7.53;;;;;;;;;;6113314;23;20065;-78
2022/10/19 10:35:02;;;;;;;8.90;7.03;;;;;;;;;;6113690;23;20002;-78
2022/10/19 10:37:37;;;;;;;8.45;7.47;;;;;;;;;;6112167;23;20880;-78
2022/10/19 10:40:04;;;;;;;8.07;7.15;;;;;;;;;;6114160;23;20033;-78
2022/10/19 10:42:34;;;;;;;7.32;6.55;;;;;;;;;;6113084;23;20394;-76
2022/10/19 10:45:00;;;;;;;7.85;7.05;;;;;;;;;;6111998;23;20089;-78
2022/10/19 10:47:27;;;;;;;8.90;6.95;;;;;;;;;;6112390;23;20061;-77
2022/10/19 10:49:56;;;;;;;8.48;6.88;;;;;;;;;;6114353;23;20085;-76
2022/10/19 10:52:22;;;;;;;11.05;7.32;;;;;;;;;;6111039;23;20100;-76
2022/10/19 10:54:57;;;;;;;9.57;7.55;;;;;;;;;;6114089;23;20499;-79
2022/10/19 10:57:25;;;;;;;8.75;7.20;;;;;;;;;;6110795;23;20010;-78
2022/10/19 11:00:10;;;;;;;10.27;7.60;;;;;;;;;;6112568;23;20035;-77
2022/10/19 11:02:42;;;;;;;8.68;6.65;;;;;;;;;;6112444;23;20009;-78
2022/10/19 11:05:08;;;;;;;11.27;6.65;;;;;;;;;;6113355;23;20093;-78
2022/10/19 11:07:35;;;;;;;8.73;7.13;;;;;;;;;;6111559;23;20117;-80
2022/10/19 11:10:08;;;;;;;9.73;6.60;;;;;;;;;;6112911;23;20077;-80
2022/10/19 11:12:40;;;;;;;9.38;6.63;;;;;;;;;;6112547;23;20328;-79
2022/10/19 11:15:12;;;;;;;8.40;7.03;;;;;;;;;;6087269;23;20502;-78
2022/10/19 11:17:42;;;;;;;7.65;6.63;;;;;;;;;;6110328;23;20006;-78
2022/10/19 11:20:14;;;;;;;9.85;7.05;;;;;;;;;;6113576;23;20005;-77
2022/10/19 11:22:44;;;;;;;8.20;7.03;;;;;;;;;;6112762;23;20002;-77
2022/10/19 11:25:13;;;;;;;7.53;6.60;;;;;;;;;;6113230;23;20001;-77
2022/10/19 11:28:12;;;;;;;7.95;6.55;;;;;;;;;;6111099;23;20415;-78
2022/10/19 11:30:52;;;;;;;7.20;6.30;;;;;;;;;;6049259;23;20514;-77
2022/10/19 11:33:38;;;;;;;8.13;6.63;;;;;;;;;;6112212;23;20006;-79
2022/10/19 11:36:11;;;;;;;9.85;7.70;;;;;;;;;;6091187;23;20475;-77
2022/10/19 11:38:37;;;;;;;9.15;7.47;;;;;;;;;;6113230;23;20619;-78
2022/10/19 11:41:15;;;;;;;8.52;7.53;;;;;;;;;;6113598;23;20002;-78
2022/10/19 11:43:41;;;;;;;9.50;7.57;;;;;;;;;;6112210;23;20077;-78
2022/10/19 11:46:22;;;;;;;9.82;6.82;;;;;;;;;;6085624;23;20331;-79
2022/10/19 11:48:56;;;;;;;9.25;7.40;;;;;;;;;;6112597;23;20345;-78
2022/10/19 11:51:52;;;;;;;10.52;6.95;;;;;;;;;;6112700;23;20034;-80
2022/10/19 11:54:27;;;;;;;8.88;6.60;;;;;;;;;;6010056;23;20000;-78
2022/10/19 11:56:53;;;;;;;13.68;8.15;;;;;;;;;;6112567;23;19998;-78
2022/10/19 11:59:29;;;;;;;23.95;12.25;;;;;;;;;;6111598;23;20021;-78
2022/10/19 12:02:12;;;;;;;12.35;8.02;;;;;;;;;;6112912;23;19998;-77
2022/10/19 12:04:38;;;;;;;9.75;7.25;;;;;;;;;;6112658;23;20013;-78
2022/10/19 12:07:23;;;;;;;16.17;8.93;;;;;;;;;;6112779;23;20663;-80
2022/10/19 12:09:59;;;;;;;19.77;9.13;;;;;;;;;;6111119;23;20002;-77
2022/10/19 12:12:33;;;;;;;13.60;8.00;;;;;;;;;;6113379;23;20092;-79
2022/10/19 12:15:03;;;;;;;14.60;8.63;;;;;;;;;;6112436;23;20415;-77
2022/10/19 12:17:31;;;;;;;16.13;8.82;;;;;;;;;;6112498;23;20010;-77
2022/10/19 12:20:03;;;;;;;14.73;7.57;;;;;;;;;;6110904;23;20002;-78
2022/10/19 12:22:30;;;;;;;62.20;19.58;;;;;;;;;;6112967;23;20002;-77
2022/10/19 12:24:58;;;;;;;25.73;11.00;;;;;;;;;;6086244;23;20040;-79
2022/10/19 12:27:29;;;;;;;24.73;8.98;;;;;;;;;;6112409;23;20025;-80
2022/10/19 12:29:58;;;;;;;9.73;6.90;;;;;;;;;;6112466;23;20109;-78
2022/10/19 12:32:26;;;;;;;26.27;9.18;;;;;;;;;;6112482;23;20006;-79
2022/10/19 12:34:58;;;;;;;16.40;8.70;;;;;;;;;;6112099;23;20418;-78
2022/10/19 12:37:43;;;;;;;8.57;6.78;;;;;;;;;;6086964;23;20380;-81
2022/10/19 12:40:21;;;;;;;9.63;7.38;;;;;;;;;;6112648;23;20009;-76
2022/10/19 12:43:00;;;;;;;11.20;7.53;;;;;;;;;;6109970;23;20213;-80
2022/10/19 12:45:41;;;;;;;12.82;7.55;;;;;;;;;;6111835;23;20006;-79
2022/10/19 12:48:10;;;;;;;8.85;7.35;;;;;;;;;;6112682;23;20028;-78
2022/10/19 12:50:48;;;;;;;12.55;8.07;;;;;;;;;;6084961;23;20461;-79
2022/10/19 12:53:30;;;;;;;9.98;6.90;;;;;;;;;;6111493;23;20012;-77
2022/10/19 12:56:02;;;;;;;9.95;7.15;;;;;;;;;;6086698;23;20002;-77
2022/10/19 12:58:33;;;;;;;8.10;6.88;;;;;;;;;;6111732;23;20040;-78
2022/10/19 13:01:01;;;;;;;8.43;6.90;;;;;;;;;;6086434;23;20424;-77
2022/10/19 13:03:30;;;;;;;7.50;6.25;;;;;;;;;;6111611;23;20435;-77
2022/10/19 13:05:57;;;;;;;8.35;6.88;;;;;;;;;;6113386;23;20411;-80
2022/10/19 13:08:25;;;;;;;9.55;6.30;;;;;;;;;;6112679;23;20002;-81
2022/10/19 13:11:07;;;;;;;7.88;6.28;;;;;;;;;;6112402;23;20419;-80
2022/10/19 13:13:51;;;;;;;10.95;6.85;;;;;;;;;;6110577;23;20014;-78
2022/10/19 13:16:30;;;;;;;11.80;5.65;;;;;;;;;;6111522;23;20002;-79
2022/10/19 13:18:59;;;;;;;7.43;6.43;;;;;;;;;;6111999;23;20002;-79
2022/10/19 13:22:00;;;;;;;6.18;5.50;;;;;;;;;;6111836;23;19998;-79
2022/10/19 13:24:26;;;;;;;9.38;6.10;;;;;;;;;;5992784;23;20008;-79
2022/10/19 13:27:01;;;;;;;7.30;5.55;;;;;;;;;;6088286;23;20006;-79
2022/10/19 13:29:39;;;;;;;6.32;5.43;;;;;;;;;;6110799;23;20721;-78
2022/10/19 13:32:24;;;;;;;6.82;4.82;;;;;;;;;;6112663;23;20065;-82
2022/10/19 13:34:51;;;;;;;6.80;5.00;;;;;;;;;;6111612;23;20006;-75
2022/10/19 13:37:18;;;;;;;6.88;5.05;;;;;;;;;;6111127;23;20004;-80
2022/10/19 13:39:44;;;;;;;7.30;5.20;;;;;;;;;;6084486;23;20033;-81
2022/10/19 13:42:23;;;;;;;10.20;5.78;;;;;;;;;;6112154;23;20447;-78
2022/10/19 13:44:51;;;;;;;6.55;5.30;;;;;;;;;;6086289;23;20442;-79
2022/10/19 13:47:21;;;;;;;6.72;5.20;;;;;;;;;;6110282;23;20037;-78
2022/10/19 13:49:47;;;;;;;8.23;5.80;;;;;;;;;;6111317;23;20006;-82
2022/10/19 13:52:32;;;;;;;6.10;4.93;;;;;;;;;;6111033;23;20045;-78
2022/10/19 13:55:16;;;;;;;6.72;5.22;;;;;;;;;;6111036;23;20505;-80
2022/10/19 13:58:05;;;;;;;6.72;5.32;;;;;;;;;;6109418;23;20093;-78
2022/10/19 14:00:37;;;;;;;5.75;5.07;;;;;;;;;;6095493;23;20089;-80
2022/10/19 14:03:29;;;;;;;8.80;5.45;;;;;;;;;;6084279;23;20034;-78
2022/10/19 14:06:02;;;;;;;7.20;5.00;;;;;;;;;;6086321;23;20673;-76
2022/10/19 14:08:36;;;;;;;7.10;5.82;;;;;;;;;;6086406;23;20037;-77
2022/10/19 14:11:23;;;;;;;6.10;5.50;;;;;;;;;;6087654;23;20615;-76
2022/10/19 14:14:06;;;;;;;6.30;5.20;;;;;;;;;;6112482;23;20010;-75
2022/10/19 14:16:33;;;;;;;6.85;5.65;;;;;;;;;;6114605;23;20033;-76
2022/10/19 14:18:59;;;;;;;6.88;5.53;;;;;;;;;;6111977;23;20010;-77
2022/10/19 14:21:33;;;;;;;9.02;5.55;;;;;;;;;;6114667;23;20002;-77
2022/10/19 14:23:59;;;;;;;9.48;5.50;;;;;;;;;;6114253;23;20006;-77
2022/10/19 14:26:30;;;;;;;10.07;5.82;;;;;;;;;;6088359;23;20343;-76
2022/10/19 14:28:57;;;;;;;7.03;5.68;;;;;;;;;;6111938;23;20020;-76
2022/10/19 14:31:36;;;;;;;6.20;5.55;;;;;;;;;;6112911;23;20014;-76
2022/10/19 14:34:03;;;;;;;7.68;5.80;;;;;;;;;;6113487;23;19998;-76
2022/10/19 14:36:36;;;;;;;7.45;5.43;;;;;;;;;;6113545;23;20045;-77
2022/10/19 14:39:02;;;;;;;8.10;6.07;;;;;;;;;;6113692;23;19998;-77
2022/10/19 14:41:28;;;;;;;7.47;6.03;;;;;;;;;;6112318;23;20006;-77
2022/10/19 14:43:55;;;;;;;7.22;5.93;;;;;;;;;;6113563;23;20510;-77